sensor_id;sensor_type;location;lat;lon;timestamp;pressure;altitude;pressure_sealevel;temperature;humidity
55014;BME280;40916;51.632;5.552;2022-07-29T00:00:48;1012.9821403093587;;;16.93003332205902;0
55014;BME280;40916;51.632;5.552;2022-07-29T00:01:49;1013.0226202146237;;;16.95584733366681;0
55014;BME280;40916;51.632;5.552;2022-07-29T00:02:49;1013.0114262130065;;;16.95584733366681;0
55014;BME280;40916;51.632;5.552;2022-07-29T00:03:49;1012.9890382130832;;;16.95584733366681;0
55014;BME280;40916;51.632;5.552;2022-07-29T00:04:49;1012.9367995637629;;;16.95584733366681;0
55014;BME280;40916;51.632;5.552;2022-07-29T00:05:49;1012.9670764757196;;;16.93648730969098;0
55014;BME280;40916;51.632;5.552;2022-07-29T00:06:49;1012.9366543121225;;;16.962300028993567;0
55014;BME280;40916;51.632;5.552;2022-07-29T00:07:49;1012.9738220435866;;;16.968752401475065;0
55014;BME280;40916;51.632;5.552;2022-07-29T00:08:49;1012.9066562087407;;;16.968752401475065;0
55014;BME280;40916;51.632;5.552;2022-07-29T00:09:49;1012.9582973018629;;;16.994558664794734;0
55014;BME280;40916;51.632;5.552;2022-07-29T00:10:50;1012.8915818492887;;;16.975204451203638;0
55014;BME280;40916;51.632;5.552;2022-07-29T00:11:50;1012.9396390850225;;;16.994558664794734;0
55014;BME280;40916;51.632;5.552;2022-07-29T00:12:50;1012.9321757991447;;;16.994558664794734;0
55014;BME280;40916;51.632;5.552;2022-07-29T00:13:50;1012.8914318516032;;;16.981656178271596;0
55014;BME280;40916;51.632;5.552;2022-07-29T00:14:50;1012.9438226600801;;;16.975204451203638;0
55014;BME280;40916;51.632;5.552;2022-07-29T00:15:50;1012.9514334275565;;;16.968752401475065;0
55014;BME280;40916;51.632;5.552;2022-07-29T00:16:50;1012.9182870457842;;;16.949394315402404;0
55014;BME280;40916;51.632;5.552;2022-07-29T00:17:50;1012.9406747199746;;;16.949394315402404;0
55014;BME280;40916;51.632;5.552;2022-07-29T00:18:50;1012.9893231369026;;;16.942940974107945;0
55014;BME280;40916;51.632;5.552;2022-07-29T00:19:51;1012.9076566275462;;;16.923579011119553;0
55014;BME280;40916;51.632;5.552;2022-07-29T00:20:51;1012.9788184659783;;;16.910669418947833;0
55014;BME280;40916;51.632;5.552;2022-07-29T00:21:51;1012.948560190612;;;16.93003332205902;0
55014;BME280;40916;51.632;5.552;2022-07-29T00:22:51;1012.9341811467302;;;16.904214137530364;0
55014;BME280;40916;51.632;5.552;2022-07-29T00:23:51;1012.9754845440879;;;16.8913026035689;0
55014;BME280;40916;51.632;5.552;2022-07-29T00:24:51;1012.9157915555669;;;16.8913026035689;0
55014;BME280;40916;51.632;5.552;2022-07-29T00:25:51;1012.9045991237132;;;16.8913026035689;0
55014;BME280;40916;51.632;5.552;2022-07-29T00:26:52;1012.9196527404125;;;16.884846350839478;0
55014;BME280;40916;51.632;5.552;2022-07-29T00:27:51;1012.8712825565462;;;16.878389774153916;0
55014;BME280;40916;51.632;5.552;2022-07-29T00:28:52;1012.9120607448264;;;16.8913026035689;0
55014;BME280;40916;51.632;5.552;2022-07-29T00:29:52;1012.8451676220151;;;16.878389774153916;0
55014;BME280;40916;51.632;5.552;2022-07-29T00:30:52;1012.8824746731839;;;16.878389774153916;0
55014;BME280;40916;51.632;5.552;2022-07-29T00:31:52;1012.8937947729792;;;16.871932873419418;0
55014;BME280;40916;51.632;5.552;2022-07-29T00:32:52;1012.8230399585764;;;16.86547564854314;0
55014;BME280;40916;51.632;5.552;2022-07-29T00:33:52;1012.8602188909579;;;16.871932873419418;0
55014;BME280;40916;51.632;5.552;2022-07-29T00:34:52;1012.871537766206;;;16.86547564854314;0
55014;BME280;40916;51.632;5.552;2022-07-29T00:35:52;1012.8046385282787;;;16.852560225993713;0
55014;BME280;40916;51.632;5.552;2022-07-29T00:36:52;1012.8457971258653;;;16.846102028134716;0
55014;BME280;40916;51.632;5.552;2022-07-29T00:37:53;1012.7790131039416;;;16.826725487104707;0
55014;BME280;40916;51.632;5.552;2022-07-29T00:38:53;1012.7792488434632;;;16.81380616927659;0
55014;BME280;40916;51.632;5.552;2022-07-29T00:39:53;1012.6824970661337;;;16.800885551532758;0
55014;BME280;40916;51.632;5.552;2022-07-29T00:40:53;1012.8018595319481;;;16.800885551532758;0
55014;BME280;40916;51.632;5.552;2022-07-29T00:41:53;1012.7613813347881;;;16.768578315146925;0
55014;BME280;40916;51.632;5.552;2022-07-29T00:42:53;1012.7837602423513;;;16.768578315146925;0
55014;BME280;40916;51.632;5.552;2022-07-29T00:43:53;1012.7841762389687;;;16.742726665221316;0
55014;BME280;40916;51.632;5.552;2022-07-29T00:44:53;1012.7952633019553;;;16.749190066477905;0
55014;BME280;40916;51.632;5.552;2022-07-29T00:45:53;1012.8810455734051;;;16.749190066477905;0
55014;BME280;40916;51.632;5.552;2022-07-29T00:46:53;1012.7917358958343;;;16.736262937958717;0
55014;BME280;40916;51.632;5.552;2022-07-29T00:47:53;1012.7917358958343;;;16.736262937958717;0
55014;BME280;40916;51.632;5.552;2022-07-29T00:48:54;1012.8402201649825;;;16.736262937958717;0
55014;BME280;40916;51.632;5.552;2022-07-29T00:49:54;1012.8662276922022;;;16.742726665221316;0
55014;BME280;40916;51.632;5.552;2022-07-29T00:50:54;1012.8439497250054;;;16.736262937958717;0
55014;BME280;40916;51.632;5.552;2022-07-29T00:51:54;1012.8253019261165;;;16.736262937958717;0
55014;BME280;40916;51.632;5.552;2022-07-29T00:52:54;1012.8253019261165;;;16.736262937958717;0
55014;BME280;40916;51.632;5.552;2022-07-29T00:53:54;1012.7842767793416;;;16.736262937958717;0
55014;BME280;40916;51.632;5.552;2022-07-29T00:54:54;1012.8514088454184;;;16.736262937958717;0
55014;BME280;40916;51.632;5.552;2022-07-29T00:55:54;1012.8550388541788;;;16.742726665221316;0
55014;BME280;40916;51.632;5.552;2022-07-29T00:56:54;1012.8923349852114;;;16.742726665221316;0
55014;BME280;40916;51.632;5.552;2022-07-29T00:57:54;1012.8363907932567;;;16.742726665221316;0
55014;BME280;40916;51.632;5.552;2022-07-29T00:58:55;1012.8734841840252;;;16.75565314182203;0
55014;BME280;40916;51.632;5.552;2022-07-29T00:59:55;1012.9666250103166;;;16.76211589134721;0
55014;BME280;40916;51.632;5.552;2022-07-29T01:00:55;1013.007339508183;;;16.78150218594369;0
55014;BME280;40916;51.632;5.552;2022-07-29T01:01:55;1012.9366828954212;;;16.768578315146925;0
55014;BME280;40916;51.632;5.552;2022-07-29T01:02:55;1012.9961497196402;;;16.78150218594369;0
55014;BME280;40916;51.632;5.552;2022-07-29T01:03:55;1012.9887958388229;;;16.775040413314617;0
55014;BME280;40916;51.632;5.552;2022-07-29T01:04:55;1013.0851242048168;;;16.81380616927659;0
55014;BME280;40916;51.632;5.552;2022-07-29T01:05:55;1013.0291713332316;;;16.81380616927659;0
55014;BME280;40916;51.632;5.552;2022-07-29T01:06:55;1013.1034330624077;;;16.833184658783246;0
55014;BME280;40916;51.632;5.552;2022-07-29T01:07:55;1013.1704635043602;;;16.839643505762233;0
55014;BME280;40916;51.632;5.552;2022-07-29T01:08:56;1013.2109008151147;;;16.871932873419418;0
55014;BME280;40916;51.632;5.552;2022-07-29T01:09:56;1013.3072732971099;;;16.904214137530364;0
55014;BME280;40916;51.632;5.552;2022-07-29T01:10:56;1013.3110042248047;;;16.904214137530364;0
55014;BME280;40916;51.632;5.552;2022-07-29T01:11:56;1013.3889657339644;;;16.923579011119553;0
55014;BME280;40916;51.632;5.552;2022-07-29T01:12:57;1013.447993093864;;;16.95584733366681;0
55014;BME280;40916;51.632;5.552;2022-07-29T01:13:56;1013.4515863603547;;;16.962300028993567;0
55014;BME280;40916;51.632;5.552;2022-07-29T01:14:56;1013.4701041658035;;;16.968752401475065;0
55014;BME280;40916;51.632;5.552;2022-07-29T01:15:59;1013.4992412728187;;;17.00100942443435;0
55014;BME280;40916;51.632;5.552;2022-07-29T01:16:58;1013.4761005879056;;;17.033258390098567;0
55014;BME280;40916;51.632;5.552;2022-07-29T01:17:59;1013.4048813949491;;;17.04615572290011;0
55014;BME280;40916;51.632;5.552;2022-07-29T01:18:58;1013.4188428146804;;;17.084840004702755;0
55014;BME280;40916;51.632;5.552;2022-07-29T01:19:58;1013.332492459157;;;17.1041778095591;0
55014;BME280;40916;51.632;5.552;2022-07-29T01:21:04;1013.2278087266485;;;17.110623102745425;0
55014;BME280;40916;51.632;5.552;2022-07-29T01:21:57;1013.2718978099656;;;17.13640106910344;0
55014;BME280;40916;51.632;5.552;2022-07-29T01:23:01;1013.1640035012457;;;17.123512727018863;0
55014;BME280;40916;51.632;5.552;2022-07-29T01:23:59;1013.2569666258513;;;17.13640106910344;0
55014;BME280;40916;51.632;5.552;2022-07-29T01:25:03;1013.3204241718977;;;17.13640106910344;0
55014;BME280;40916;51.632;5.552;2022-07-29T01:26:00;1013.3721467198712;;;17.155731179726423;0
55014;BME280;40916;51.632;5.552;2022-07-29T01:26:59;1013.3419176621966;;;17.1686163195384;0
55014;BME280;40916;51.632;5.552;2022-07-29T01:28:01;1013.1743002640718;;;17.155731179726423;0
55014;BME280;40916;51.632;5.552;2022-07-29T01:28:59;1013.1631014183926;;;17.155731179726423;0
55014;BME280;40916;51.632;5.552;2022-07-29T01:29:58;1013.0518436497216;;;17.12995705828902;0
55014;BME280;40916;51.632;5.552;2022-07-29T01:30:58;1012.9995853417608;;;17.12995705828902;0
55014;BME280;40916;51.632;5.552;2022-07-29T01:31:58;1013.052377262833;;;17.110623102745425;0
55014;BME280;40916;51.632;5.552;2022-07-29T01:33:00;1012.9529715647925;;;17.059051769111445;0
55014;BME280;40916;51.632;5.552;2022-07-29T01:34:01;1012.931711041625;;;17.013909976930517;0
55014;BME280;40916;51.632;5.552;2022-07-29T01:35:02;1012.8657580536001;;;16.962300028993567;0
55014;BME280;40916;51.632;5.552;2022-07-29T01:35:59;1012.8630218294736;;;16.91712437678002;0
55014;BME280;40916;51.632;5.552;2022-07-29T01:37:01;1012.8563597360786;;;16.878389774153916;0
55014;BME280;40916;51.632;5.552;2022-07-29T01:38:01;1012.7343688609288;;;16.82026599063353;0
55014;BME280;40916;51.632;5.552;2022-07-29T01:39:01;1012.7945122025899;;;16.794424754959444;0
55014;BME280;40916;51.632;5.552;2022-07-29T01:39:59;1012.8098689734168;;;16.768578315146925;0
55014;BME280;40916;51.632;5.552;2022-07-29T01:41:01;1012.691237394922;;;16.7233345050411;0
55014;BME280;40916;51.632;5.552;2022-07-29T01:42:01;1012.7474657418032;;;16.703939408278767;0
55014;BME280;40916;51.632;5.552;2022-07-29T01:42:59;1012.6845220427606;;;16.671607714395318;0
55014;BME280;40916;51.632;5.552;2022-07-29T01:44:01;1012.6216332135209;;;16.632798888463217;0
55014;BME280;40916;51.632;5.552;2022-07-29T01:45:00;1012.6144849167092;;;16.606919787058608;0
55014;BME280;40916;51.632;5.552;2022-07-29T01:46:00;1012.6000598226885;;;16.561618728778235;0
55014;BME280;40916;51.632;5.552;2022-07-29T01:47:01;1012.5369336945652;;;16.535725181758508;0
55014;BME280;40916;51.632;5.552;2022-07-29T01:48:00;1012.5037218163407;;;16.496874988772998;0
55014;BME280;40916;51.632;5.552;2022-07-29T01:49:02;1012.4816473086362;;;16.458012930629042;0
55014;BME280;40916;51.632;5.552;2022-07-29T01:50:00;1012.3887500088285;;;16.412658839159263;0
55014;BME280;40916;51.632;5.552;2022-07-29T01:51:01;1012.3889400938516;;;16.373771002675785;0
55014;BME280;40916;51.632;5.552;2022-07-29T01:52:02;1012.4002587365345;;;16.334871235856014;0
55014;BME280;40916;51.632;5.552;2022-07-29T01:53:01;1012.3817271198117;;;16.289473068352677;0
55014;BME280;40916;51.632;5.552;2022-07-29T01:54:01;1012.3333200804435;;;16.224590260372423;0
55014;BME280;40916;51.632;5.552;2022-07-29T01:55:02;1012.2736429896224;;;16.172659998856805;0
55014;BME280;40916;51.632;5.552;2022-07-29T01:56:00;1012.2734561362682;;;16.11421287204576;0
55014;BME280;40916;51.632;5.552;2022-07-29T01:57:01;1012.2395983763107;;;16.04923976787123;0
55014;BME280;40916;51.632;5.552;2022-07-29T01:58:01;1012.2018851723036;;;15.984233041027483;0
55014;BME280;40916;51.632;5.552;2022-07-29T01:59:01;1012.1714866976142;;;15.919192593825496;0
55014;BME280;40916;51.632;5.552;2022-07-29T02:00:02;1012.1709748332053;;;15.873644164670896;0
55014;BME280;40916;51.632;5.552;2022-07-29T02:01:01;1012.2077899067206;;;15.841099408203952;0
55014;BME280;40916;51.632;5.552;2022-07-29T02:02:02;1012.1771857435378;;;15.782497458214806;0
55014;BME280;40916;51.632;5.552;2022-07-29T02:03:02;1012.199006846292;;;15.749928914995781;0
55014;BME280;40916;51.632;5.552;2022-07-29T02:04:02;1012.1499709576959;;;15.710835417236279;0
55014;BME280;40916;51.632;5.552;2022-07-29T02:05:02;1012.2166044234008;;;15.691284061503382;0
55014;BME280;40916;51.632;5.552;2022-07-29T02:06:02;1012.1971346639763;;;15.64565226918338;0
55014;BME280;40916;51.632;5.552;2022-07-29T02:07:02;1012.2859026525417;;;15.619569429900306;0
55014;BME280;40916;51.632;5.552;2022-07-29T02:08:02;1012.2478617889727;;;15.580434886641285;0
55014;BME280;40916;51.632;5.552;2022-07-29T02:09:02;1012.2770364372694;;;15.55433832556545;0
55014;BME280;40916;51.632;5.552;2022-07-29T02:10:03;1012.2953338130266;;;15.541287982949353;0
55014;BME280;40916;51.632;5.552;2022-07-29T02:11:02;1012.2838658352786;;;15.528236264543132;0
55014;BME280;40916;51.632;5.552;2022-07-29T02:12:03;1012.3729840179926;;;15.521709889167408;0
55014;BME280;40916;51.632;5.552;2022-07-29T02:13:03;1012.2345531695648;;;15.489072846537706;0
55014;BME280;40916;51.632;5.552;2022-07-29T02:14:02;1012.2338877071504;;;15.462957007488122;0
55014;BME280;40916;51.632;5.552;2022-07-29T02:15:03;1012.2069902613567;;;15.430304441900489;0
55014;BME280;40916;51.632;5.552;2022-07-29T02:16:03;1012.1164744994578;;;15.384576329451058;0
55014;BME280;40916;51.632;5.552;2022-07-29T02:17:03;1012.0826347926178;;;15.371508038649132;0
55014;BME280;40916;51.632;5.552;2022-07-29T02:18:04;1012.051933730734;;;15.338831244826427;0
55014;BME280;40916;51.632;5.552;2022-07-29T02:19:03;1012.0104453639151;;;15.319221004363893;0
55014;BME280;40916;51.632;5.552;2022-07-29T02:20:03;1011.9356862065099;;;15.306145773956;0
55014;BME280;40916;51.632;5.552;2022-07-29T02:21:03;1012.02863678189;;;15.306145773956;0
55014;BME280;40916;51.632;5.552;2022-07-29T02:22:03;1011.9456147779147;;;15.266911737286577;0
55014;BME280;40916;51.632;5.552;2022-07-29T02:23:04;1011.912155426623;;;15.266911737286577;0
55014;BME280;40916;51.632;5.552;2022-07-29T02:24:04;1011.9049273082035;;;15.273451613310463;0
55014;BME280;40916;51.632;5.552;2022-07-29T02:25:04;1011.9385934469376;;;15.279991141233332;0
55014;BME280;40916;51.632;5.552;2022-07-29T02:26:04;1011.8791084830372;;;15.279991141233332;0
55014;BME280;40916;51.632;5.552;2022-07-29T02:27:04;1011.8830303708231;;;15.286530321157283;0
55014;BME280;40916;51.632;5.552;2022-07-29T02:28:05;1011.8795150864331;;;15.29306915318437;0
55014;BME280;40916;51.632;5.552;2022-07-29T02:29:04;1011.9166942372565;;;15.29306915318437;0
55014;BME280;40916;51.632;5.552;2022-07-29T02:30:05;1011.9018225754661;;;15.29306915318437;0
55014;BME280;40916;51.632;5.552;2022-07-29T02:31:04;1011.789881095622;;;15.279991141233332;0
55014;BME280;40916;51.632;5.552;2022-07-29T02:32:05;1011.9460290696163;;;15.279991141233332;0
55014;BME280;40916;51.632;5.552;2022-07-29T02:33:05;1011.8759982489605;;;15.299607637416617;0
55014;BME280;40916;51.632;5.552;2022-07-29T02:34:06;1012.0362732745456;;;15.31268356290446;0
55014;BME280;40916;51.632;5.552;2022-07-29T02:35:05;1011.9429216737811;;;15.299607637416617;0
55014;BME280;40916;51.632;5.552;2022-07-29T02:36:05;1011.9765844503021;;;15.306145773956;0
55014;BME280;40916;51.632;5.552;2022-07-29T02:37:05;1011.98050212764;;;15.31268356290446;0
55014;BME280;40916;51.632;5.552;2022-07-29T02:38:05;1012.0368659225447;;;15.332294845223078;0
55014;BME280;40916;51.632;5.552;2022-07-29T02:39:05;1011.9840204962107;;;15.306145773956;0
55014;BME280;40916;51.632;5.552;2022-07-29T02:40:06;1012.0212007330593;;;15.306145773956;0
55014;BME280;40916;51.632;5.552;2022-07-29T02:41:08;1011.9724629863194;;;15.29306915318437;0
55014;BME280;40916;51.632;5.552;2022-07-29T02:42:07;1011.9571825045479;;;15.279991141233332;0
55014;BME280;40916;51.632;5.552;2022-07-29T02:43:06;1012.0096421675798;;;15.29306915318437;0
55014;BME280;40916;51.632;5.552;2022-07-29T02:44:08;1011.9683359405748;;;15.279991141233332;0
55014;BME280;40916;51.632;5.552;2022-07-29T02:45:06;1011.9720537528274;;;15.279991141233332;0
55014;BME280;40916;51.632;5.552;2022-07-29T02:46:08;1012.035256579746;;;15.279991141233332;0
55014;BME280;40916;51.632;5.552;2022-07-29T02:47:07;1011.8485371037121;;;15.253830940527163;0
55014;BME280;40916;51.632;5.552;2022-07-29T02:48:08;1011.874349072358;;;15.24729001958724;0
55014;BME280;40916;51.632;5.552;2022-07-29T02:49:07;1011.9075938490895;;;15.240748750137506;0
55014;BME280;40916;51.632;5.552;2022-07-29T02:50:08;1011.7949894826193;;;15.20803717165986;0
55014;BME280;40916;51.632;5.552;2022-07-29T02:51:08;1011.8618996024718;;;15.20803717165986;0
55014;BME280;40916;51.632;5.552;2022-07-29T02:52:08;1011.9100016994556;;;15.201493809001612;0
55014;BME280;40916;51.632;5.552;2022-07-29T02:53:08;1011.9727438058858;;;15.188406035902318;0
55014;BME280;40916;51.632;5.552;2022-07-29T02:54:07;1012.0247828778296;;;15.188406035902318;0
55014;BME280;40916;51.632;5.552;2022-07-29T02:55:09;1012.0503444470728;;;15.175316865075242;0
55014;BME280;40916;51.632;5.552;2022-07-29T02:56:08;1012.120966955724;;;15.175316865075242;0
55014;BME280;40916;51.632;5.552;2022-07-29T02:57:09;1012.0875141829921;;;15.175316865075242;0
55014;BME280;40916;51.632;5.552;2022-07-29T02:58:08;1012.1553357734772;;;15.201493809001612;0
55014;BME280;40916;51.632;5.552;2022-07-29T02:59:08;1012.0884264279882;;;15.201493809001612;0
55014;BME280;40916;51.632;5.552;2022-07-29T03:00:08;1012.0282720099804;;;15.181861625256076;0
55014;BME280;40916;51.632;5.552;2022-07-29T03:01:08;1011.9341914747313;;;15.14913432695137;0
55014;BME280;40916;51.632;5.552;2022-07-29T03:02:08;1011.9820358162796;;;15.136040958009769;0
55014;BME280;40916;51.632;5.552;2022-07-29T03:03:08;1011.9359842276522;;;15.096752441783973;0
55014;BME280;40916;51.632;5.552;2022-07-29T03:04:08;1011.901542126599;;;15.070553081551061;0
55014;BME280;40916;51.632;5.552;2022-07-29T03:05:08;1011.9191032979434;;;15.044348100741825;0
55014;BME280;40916;51.632;5.552;2022-07-29T03:06:08;1011.9854694118119;;;15.031243500552549;0
55014;BME280;40916;51.632;5.552;2022-07-29T03:07:08;1011.9098319450721;;;14.99847583989446;0
55014;BME280;40916;51.632;5.552;2022-07-29T03:08:09;1011.9387447654941;;;14.978811015223961;0
55014;BME280;40916;51.632;5.552;2022-07-29T03:09:08;1011.9379200475855;;;14.959143015919544;0
55014;BME280;40916;51.632;5.552;2022-07-29T03:10:09;1011.9102266861116;;;14.919797482173994;0
55014;BME280;40916;51.632;5.552;2022-07-29T03:11:09;1011.9173701555595;;;14.913238655964957;0
55014;BME280;40916;51.632;5.552;2022-07-29T03:12:09;1011.8979287734767;;;14.893560054249491;0
55014;BME280;40916;51.632;5.552;2022-07-29T03:13:09;1011.9122017752502;;;14.88043921615472;0
55014;BME280;40916;51.632;5.552;2022-07-29T03:14:09;1011.9107115708872;;;14.84763091882461;0
55014;BME280;40916;51.632;5.552;2022-07-29T03:15:09;1011.9769613266382;;;14.834505116857574;0
55014;BME280;40916;51.632;5.552;2022-07-29T03:16:09;1011.9986319337379;;;14.821377894756203;0
55014;BME280;40916;51.632;5.552;2022-07-29T03:17:09;1011.9980112783388;;;14.80824925168146;0
55014;BME280;40916;51.632;5.552;2022-07-29T03:18:10;1011.9596142378907;;;14.781987699252369;0
55014;BME280;40916;51.632;5.552;2022-07-29T03:19:10;1012.0406784410274;;;14.76885478821664;0
55014;BME280;40916;51.632;5.552;2022-07-29T03:20:10;1012.0032199347384;;;14.762287798625348;0
55014;BME280;40916;51.632;5.552;2022-07-29T03:21:10;1011.9462177466811;;;14.736016277313805;0
55014;BME280;40916;51.632;5.552;2022-07-29T03:22:10;1012.0616625620147;;;14.742584692294361;0
55014;BME280;40916;51.632;5.552;2022-07-29T03:23:10;1012.075526847332;;;14.722878377414787;0
55014;BME280;40916;51.632;5.552;2022-07-29T03:24:10;1012.029965766071;;;14.703168851138646;0
55014;BME280;40916;51.632;5.552;2022-07-29T03:25:11;1012.0775609309064;;;14.690027381437403;0
55014;BME280;40916;51.632;5.552;2022-07-29T03:26:10;1012.0812740024825;;;14.690027381437403;0
55014;BME280;40916;51.632;5.552;2022-07-29T03:27:10;1012.1028696598271;;;14.676884482335918;0
55014;BME280;40916;51.632;5.552;2022-07-29T03:28:11;1012.0613395127798;;;14.663740152987835;0
55014;BME280;40916;51.632;5.552;2022-07-29T03:29:11;1012.0609935356797;;;14.657167451706652;0
55014;BME280;40916;51.632;5.552;2022-07-29T03:30:12;1012.0829226061715;;;14.65059439254614;0
55014;BME280;40916;51.632;5.552;2022-07-29T03:31:11;1012.1757415105462;;;14.65059439254614;0
55014;BME280;40916;51.632;5.552;2022-07-29T03:32:11;1012.1402039271056;;;14.611148516179178;0
55014;BME280;40916;51.632;5.552;2022-07-29T03:33:11;1012.1736158866444;;;14.611148516179178;0
55014;BME280;40916;51.632;5.552;2022-07-29T03:34:14;1012.0712096839393;;;14.571689729412824;0
55014;BME280;40916;51.632;5.552;2022-07-29T03:35:11;1012.1454521066912;;;14.571689729412824;0
55014;BME280;40916;51.632;5.552;2022-07-29T03:36:11;1012.0771569569132;;;14.545376687779513;0
55014;BME280;40916;51.632;5.552;2022-07-29T03:37:12;1012.0882926832109;;;14.545376687779513;0
55014;BME280;40916;51.632;5.552;2022-07-29T03:38:12;1012.0797454051944;;;14.52563813021683;0
55014;BME280;40916;51.632;5.552;2022-07-29T03:39:12;1012.0786085841513;;;14.50589633259144;0
55014;BME280;40916;51.632;5.552;2022-07-29T03:40:13;1012.1075351637797;;;14.492733332714952;0
55014;BME280;40916;51.632;5.552;2022-07-29T03:41:12;1012.1442641982478;;;14.486151292017993;0
55014;BME280;40916;51.632;5.552;2022-07-29T03:42:13;1012.0874286472936;;;14.466403005607706;0
55014;BME280;40916;51.632;5.552;2022-07-29T03:43:12;1012.0710115146163;;;14.440066902981759;0
55014;BME280;40916;51.632;5.552;2022-07-29T03:44:12;1012.1641846631835;;;14.446651470468375;0
55014;BME280;40916;51.632;5.552;2022-07-29T03:45:14;1012.0924823029761;;;14.426896683704346;0
55014;BME280;40916;51.632;5.552;2022-07-29T03:46:12;1012.1329022248731;;;14.420311031698763;0
55014;BME280;40916;51.632;5.552;2022-07-29T03:47:13;1012.0867565806208;;;14.393964805389352;0
55014;BME280;40916;51.632;5.552;2022-07-29T03:48:13;1012.0970719981567;;;14.380789519756345;0
55014;BME280;40916;51.632;5.552;2022-07-29T03:49:13;1012.1337667700448;;;14.374201333443452;0
55014;BME280;40916;51.632;5.552;2022-07-29T03:50:13;1012.1263457014328;;;14.374201333443452;0
55014;BME280;40916;51.632;5.552;2022-07-29T03:51:13;1012.06119380551;;;14.341254962603507;0
55014;BME280;40916;51.632;5.552;2022-07-29T03:52:13;1012.0537732712864;;;14.341254962603507;0
55014;BME280;40916;51.632;5.552;2022-07-29T03:53:13;1012.0760348754121;;;14.341254962603507;0
55014;BME280;40916;51.632;5.552;2022-07-29T03:54:13;1012.1267141555177;;;14.321482784794512;0
55014;BME280;40916;51.632;5.552;2022-07-29T03:55:13;1012.0488018628294;;;14.321482784794512;0
55014;BME280;40916;51.632;5.552;2022-07-29T03:56:14;1012.1563950429861;;;14.321482784794512;0
55014;BME280;40916;51.632;5.552;2022-07-29T03:57:13;1012.1365660802672;;;14.301707336941575;0
55014;BME280;40916;51.632;5.552;2022-07-29T03:58:14;1012.1579654091548;;;14.28852188690621;0
55014;BME280;40916;51.632;5.552;2022-07-29T03:59:14;1012.2140448559867;;;14.2951147938094;0
55014;BME280;40916;51.632;5.552;2022-07-29T04:00:14;1012.2799562256018;;;14.281928616123693;0
55014;BME280;40916;51.632;5.552;2022-07-29T04:01:14;1012.2980692678032;;;14.275334981353485;0
55014;BME280;40916;51.632;5.552;2022-07-29T04:02:14;1012.264244599841;;;14.268740982487191;0
55014;BME280;40916;51.632;5.552;2022-07-29T04:03:14;1012.2782045155018;;;14.255551892032525;0
55014;BME280;40916;51.632;5.552;2022-07-29T04:04:14;1012.2040128302851;;;14.255551892032525;0
55014;BME280;40916;51.632;5.552;2022-07-29T04:05:14;1012.2661912370752;;;14.242361343891627;0
55014;BME280;40916;51.632;5.552;2022-07-29T04:06:14;1012.2670757596286;;;14.255551892032525;0
55014;BME280;40916;51.632;5.552;2022-07-29T04:07:15;1012.1957111567527;;;14.242361343891627;0
55014;BME280;40916;51.632;5.552;2022-07-29T04:08:14;1012.1850245708255;;;14.248956800227138;0
55014;BME280;40916;51.632;5.552;2022-07-29T04:09:15;1012.1850245708255;;;14.248956800227138;0
55014;BME280;40916;51.632;5.552;2022-07-29T04:10:15;1012.2077224133945;;;14.255551892032525;0
55014;BME280;40916;51.632;5.552;2022-07-29T04:11:15;1012.1372403550413;;;14.255551892032525;0
55014;BME280;40916;51.632;5.552;2022-07-29T04:12:15;1012.2044519433563;;;14.262146619416367;0
55014;BME280;40916;51.632;5.552;2022-07-29T04:13:15;1012.1376785137719;;;14.262146619416367;0
55014;BME280;40916;51.632;5.552;2022-07-29T04:14:15;1012.070905123458;;;14.262146619416367;0
55014;BME280;40916;51.632;5.552;2022-07-29T04:15:15;1012.1167252515056;;;14.281928616123693;0